Time;durP1;ratioP1;P1;durP2;ratioP2;P2;SDS_P1;SDS_P2;PMS_P1;PMS_P2;Temp;Humidity;BMP_temperature;BMP_pressure;BME280_temperature;BME280_humidity;BME280_pressure;Samples;Min_cycle;Max_cycle;Signal;HPM_P1;HPM_P2
2022/08/13 00:01:27;;;;;;;;;5.75;5.75;;;;;26.37;26.73;100412.47;5076299;27;45365;-69
2022/08/13 00:03:53;;;;;;;;;5.50;5.50;;;;;26.34;26.39;100410.09;5075792;27;46549;-71
2022/08/13 00:07:02;;;;;;;;;6.25;6.25;;;;;26.24;26.61;100396.81;5076110;27;45498;-72
2022/08/13 00:09:15;;;;;;;;;7.00;7.00;;;;;26.29;27.16;100404.38;5075505;27;45246;-71
2022/08/13 00:14:31;;;;;;;;;5.50;5.50;;;;;26.24;26.45;100414.81;5075473;27;45434;-68
2022/08/13 00:16:57;;;;;;;;;6.00;6.00;;;;;26.20;26.66;100410.78;5075556;27;45279;-68
2022/08/13 00:19:26;;;;;;;;;8.25;8.25;;;;;26.18;27.05;100408.28;5076010;27;45345;-69
2022/08/13 00:21:54;;;;;;;;;7.25;7.25;;;;;26.16;26.99;100407.59;5075903;27;45211;-68
2022/08/13 00:24:20;;;;;;;;;6.00;6.00;;;;;26.11;27.21;100405.38;5075500;27;46536;-69
2022/08/13 00:26:46;;;;;;;;;6.00;6.00;;;;;26.09;27.01;100403.88;5075418;27;45615;-69
2022/08/13 00:29:11;;;;;;;;;6.00;6.00;;;;;26.07;26.91;100406.72;5076018;27;45362;-71
2022/08/13 00:31:37;;;;;;;;;6.25;6.25;;;;;26.04;27.38;100409.75;5076038;27;45339;-68
2022/08/13 00:34:03;;;;;;;;;5.00;5.00;;;;;26.02;27.18;100410.94;5075271;27;45766;-69
2022/08/13 00:36:31;;;;;;;;;7.25;7.25;;;;;25.96;27.39;100402.47;5075772;27;45307;-69
2022/08/13 00:38:57;;;;;;;;;5.75;5.75;;;;;25.93;27.40;100410.06;5075721;27;45334;-69
2022/08/13 00:41:38;;;;;;;;;5.75;5.75;;;;;25.91;27.42;100409.41;5075603;27;45479;-68
2022/08/13 00:44:09;;;;;;;;;5.25;5.25;;;;;25.87;27.31;100403.47;5075173;27;46233;-69
2022/08/13 00:46:36;;;;;;;;;5.50;5.50;;;;;25.85;27.53;100402.81;5075499;27;46018;-68
2022/08/13 00:49:03;;;;;;;;;4.50;4.50;;;;;25.81;27.70;100396.06;5075129;27;45351;-69
2022/08/13 00:51:30;;;;;;;;;6.50;5.75;;;;;25.79;27.75;100400.78;5075411;27;45554;-68
2022/08/13 00:53:58;;;;;;;;;6.25;6.25;;;;;25.77;27.97;100406.34;5074910;27;46619;-69
2022/08/13 00:56:24;;;;;;;;;6.00;6.00;;;;;25.74;27.76;100404.00;5075094;27;45383;-68
2022/08/13 00:58:51;;;;;;;;;7.00;7.00;;;;;25.71;27.97;100401.63;5075375;27;45395;-67
2022/08/13 01:01:18;;;;;;;;;7.75;7.75;;;;;25.57;28.15;100389.63;5075242;27;45390;-68
2022/08/13 01:03:44;;;;;;;;;6.50;6.50;;;;;25.62;28.00;100408.84;5073830;28;48442;-69
2022/08/13 01:06:10;;;;;;;;;6.75;6.75;;;;;25.60;28.30;100410.84;5074858;27;45303;-70
2022/08/13 01:08:40;;;;;;;;;7.25;7.25;;;;;25.57;27.96;100405.78;5074994;27;45326;-70
2022/08/13 01:11:11;;;;;;;;;6.00;6.00;;;;;25.54;28.38;100408.00;5075133;27;45378;-68
2022/08/13 01:13:39;;;;;;;;;2.00;2.00;;;;;25.51;28.60;100415.38;5074699;27;46577;-72
2022/08/13 01:16:13;;;;;;;;;6.00;6.00;;;;;25.46;28.02;100408.78;5074646;27;45486;-68
2022/08/13 01:18:41;;;;;;;;;5.25;5.25;;;;;25.43;27.96;100414.47;5074855;27;45404;-68
2022/08/13 01:21:10;;;;;;;;;7.25;7.25;;;;;25.41;27.87;100411.09;5074075;27;45456;-67
2022/08/13 01:23:37;;;;;;;;;5.00;5.00;;;;;25.36;28.01;100408.88;5073319;27;47224;-69
2022/08/13 01:26:02;;;;;;;;;5.00;5.00;;;;;25.33;28.51;100409.22;5074360;27;45391;-68
2022/08/13 01:28:28;;;;;;;;;7.00;7.00;;;;;25.30;28.29;100415.78;5074730;27;45354;-68
2022/08/13 01:30:56;;;;;;;;;5.50;5.50;;;;;25.28;28.68;100416.94;5074980;27;45685;-69
2022/08/13 01:33:23;;;;;;;;;6.00;6.00;;;;;25.23;28.80;100414.75;5074311;27;47267;-69
2022/08/13 01:35:49;;;;;;;;;6.50;6.50;;;;;25.20;28.71;100409.69;5074500;27;45243;-69
2022/08/13 01:38:16;;;;;;;;;6.50;6.50;;;;;25.17;28.60;100404.63;5074868;27;45381;-70
2022/08/13 01:40:44;;;;;;;;;5.50;5.50;;;;;25.13;28.96;100414.03;5074949;27;45285;-69
2022/08/13 01:43:10;;;;;;;;;6.50;6.50;;;;;25.09;28.53;100414.34;5074400;27;46207;-69
2022/08/13 01:45:37;;;;;;;;;5.25;5.25;;;;;25.07;28.58;100416.38;5074234;27;45385;-69
2022/08/13 01:50:47;;;;;;;;;5.75;5.75;;;;;24.99;28.62;100419.00;5076083;27;45440;-72
2022/08/13 01:53:16;;;;;;;;;5.75;5.75;;;;;24.97;29.63;100410.25;5073790;28;48407;-71
2022/08/13 01:55:48;;;;;;;;;5.00;5.00;;;;;24.93;29.38;100411.59;5073563;28;45503;-71
2022/08/13 01:58:19;;;;;;;;;6.00;6.00;;;;;24.89;29.13;100418.25;5073520;28;45302;-69
2022/08/13 02:00:47;;;;;;;;;6.00;6.00;;;;;24.88;28.98;100414.75;5074887;27;45414;-70
2022/08/13 02:03:14;;;;;;;;;6.00;6.00;;;;;24.82;29.15;100412.69;5074010;27;46989;-69
2022/08/13 02:05:40;;;;;;;;;7.25;7.25;;;;;24.83;28.96;100421.59;5074061;27;45220;-70
2022/08/13 02:08:08;;;;;;;;;5.25;5.25;;;;;24.76;29.19;100416.03;5073007;28;45297;-70
2022/08/13 02:10:39;;;;;;;;;4.25;4.25;;;;;24.74;28.98;100418.03;5074939;27;45413;-69
2022/08/13 02:13:15;;;;;;;;;5.50;5.50;;;;;24.72;29.98;100423.50;5072405;27;46224;-69
2022/08/13 02:15:42;;;;;;;;;5.25;5.25;;;;;24.67;29.75;100420.47;5074303;27;45409;-69
2022/08/13 02:18:16;;;;;;;;;6.25;6.25;;;;;24.66;29.89;100426.84;5074465;27;45362;-68
2022/08/13 02:20:44;;;;;;;;;5.00;5.00;;;;;24.61;29.27;100421.09;5074309;27;45222;-70
2022/08/13 02:23:09;;;;;;;;;8.00;8.00;;;;;24.59;29.74;100418.56;5073966;27;47383;-68
2022/08/13 02:25:36;;;;;;;;;4.00;4.00;;;;;24.58;30.17;100421.41;5074019;28;45256;-69
2022/08/13 02:28:02;;;;;;;;;6.00;6.00;;;;;24.55;30.10;100419.91;5074168;27;45349;-69
2022/08/13 02:30:29;;;;;;;;;7.25;7.25;;;;;24.53;30.05;100419.19;5074292;27;45345;-72
2022/08/13 02:32:56;;;;;;;;;6.00;6.00;;;;;24.44;29.79;100407.53;5075365;27;46492;-70
2022/08/13 02:35:23;;;;;;;;;5.50;5.50;;;;;24.46;30.24;100420.84;5077574;27;45367;-67
2022/08/13 02:37:48;;;;;;;;;4.75;4.75;;;;;24.44;29.81;100414.78;5076198;27;45337;-67
2022/08/13 02:42:59;;;;;;;;;5.00;5.00;;;;;24.41;30.36;100417.78;5076946;28;45400;-70
2022/08/13 02:45:26;;;;;;;;;6.00;6.00;;;;;24.39;30.16;100422.44;5077313;27;45468;-68
2022/08/13 02:47:53;;;;;;;;;6.00;6.00;;;;;24.38;29.68;100424.28;5077412;27;45236;-70
2022/08/13 02:50:21;;;;;;;;;5.25;5.25;;;;;24.40;30.33;100424.16;5077801;27;45370;-68
2022/08/13 02:52:51;;;;;;;;;9.00;9.00;;;;;24.36;30.24;100419.06;5077143;27;45817;-68
2022/08/13 02:55:18;;;;;;;;;6.25;6.25;;;;;24.35;30.89;100424.59;5075803;27;45667;-68
2022/08/13 02:57:43;;;;;;;;;7.00;7.00;;;;;24.31;31.37;100420.53;5076912;27;45258;-69
2022/08/13 03:00:10;;;;;;;;;8.25;8.25;;;;;24.30;31.20;100418.84;5077018;27;45616;-68
2022/08/13 03:02:44;;;;;;;;;7.25;7.25;;;;;24.26;31.25;100421.00;5076675;27;46669;-68
2022/08/13 03:05:13;;;;;;;;;8.25;8.25;;;;;24.21;31.74;100416.09;5076864;27;45298;-69
2022/08/13 03:07:43;;;;;;;;;7.00;7.00;;;;;24.17;31.69;100417.41;5076946;27;45421;-69
2022/08/13 03:10:11;;;;;;;;;8.00;8.00;;;;;24.14;31.70;100416.88;5077015;27;45528;-69
2022/08/13 03:12:44;;;;;;;;;8.00;8.00;;;;;24.10;32.17;100418.16;5076554;27;46575;-68
2022/08/13 03:15:11;;;;;;;;;8.50;8.50;;;;;24.03;32.17;100416.09;5076897;27;45335;-69
2022/08/13 03:17:40;;;;;;;;;10.00;10.00;;;;;23.97;31.86;100407.78;5076753;27;45265;-71
2022/08/13 03:20:15;;;;;;;;;6.50;6.50;;;;;23.96;32.60;100412.31;5076982;27;45623;-70
2022/08/13 03:22:56;;;;;;;;;7.50;7.50;;;;;23.91;32.12;100415.47;5076422;27;45410;-71
2022/08/13 03:25:25;;;;;;;;;7.75;7.75;;;;;23.82;32.66;100408.31;5076985;27;45311;-72
2022/08/13 03:27:51;;;;;;;;;7.00;7.00;;;;;23.81;32.15;100403.09;5076967;27;45411;-72
2022/08/13 03:30:19;;;;;;;;;5.25;5.25;;;;;23.81;32.18;100411.16;5076660;27;45479;-71
2022/08/13 03:32:47;;;;;;;;;7.25;7.25;;;;;23.77;31.91;100410.59;5076832;27;46389;-69
2022/08/13 03:35:15;;;;;;;;;7.00;7.00;;;;;23.76;32.20;100403.53;5074960;28;45753;-70
2022/08/13 03:37:44;;;;;;;;;6.50;6.50;;;;;23.76;31.90;100416.97;5058174;28;45403;-70
2022/08/13 03:40:11;;;;;;;;;6.00;6.00;;;;;23.73;31.59;100415.44;5076573;27;45208;-72
2022/08/13 03:42:40;;;;;;;;;5.25;5.25;;;;;23.73;32.04;100411.91;5074426;27;46191;-71
2022/08/13 03:45:07;;;;;;;;;7.00;7.00;;;;;23.70;31.75;100406.84;5075537;27;45487;-72
2022/08/13 03:47:33;;;;;;;;;9.75;9.75;;;;;23.65;32.39;100404.63;5076239;27;45310;-73
2022/08/13 03:50:00;;;;;;;;;7.75;7.75;;;;;23.69;31.96;100411.38;5076455;27;45599;-70
2022/08/13 03:52:26;;;;;;;;;9.75;9.75;;;;;23.66;32.46;100419.75;5076244;27;46467;-70
2022/08/13 03:54:52;;;;;;;;;7.50;7.50;;;;;23.63;32.79;100414.66;5076408;27;45361;-71
2022/08/13 03:57:19;;;;;;;;;7.25;7.25;;;;;23.61;32.58;100408.63;5074730;27;45994;-72
2022/08/13 03:59:48;;;;;;;;;6.00;6.00;;;;;23.57;32.32;100410.75;5076723;28;45955;-71
2022/08/13 04:02:15;;;;;;;;;10.00;10.00;;;;;23.55;32.57;100414.59;5075748;27;46500;-72
2022/08/13 04:04:46;;;;;;;;;8.25;8.25;;;;;23.53;32.69;100412.03;5076384;27;45346;-71
2022/08/13 04:07:12;;;;;;;;;6.75;6.75;;;;;23.49;32.47;100411.50;5075927;28;45370;-72
2022/08/13 04:09:37;;;;;;;;;6.25;6.25;;;;;23.49;32.80;100408.81;5076128;27;45303;-74
2022/08/13 04:12:11;;;;;;;;;7.75;7.75;;;;;23.47;32.66;100416.19;5075535;27;45366;-68
2022/08/13 04:14:39;;;;;;;;;8.50;8.50;;;;;23.47;32.61;100418.00;5075493;28;45480;-68
2022/08/13 04:17:05;;;;;;;;;6.00;6.00;;;;;23.44;32.69;100413.81;5075561;27;45260;-69
2022/08/13 04:19:33;;;;;;;;;6.00;6.00;;;;;23.41;33.26;100407.88;5076153;28;45297;-68
2022/08/13 04:21:58;;;;;;;;;6.00;6.00;;;;;23.42;32.61;100415.78;5075419;27;45687;-68
2022/08/13 04:24:24;;;;;;;;;6.00;6.00;;;;;23.42;32.69;100415.78;5075881;27;45333;-68
2022/08/13 04:26:49;;;;;;;;;7.00;7.00;;;;;23.40;32.73;100411.56;5074406;28;45355;-68
2022/08/13 04:29:14;;;;;;;;;5.25;5.25;;;;;23.41;32.40;100408.72;5075784;27;45479;-68
2022/08/13 04:31:40;;;;;;;;;7.00;7.00;;;;;23.38;32.73;100409.03;5075483;27;45513;-69
2022/08/13 04:34:05;;;;;;;;;9.75;6.25;;;;;23.39;32.55;100410.72;5075464;27;45360;-68
2022/08/13 04:36:30;;;;;;;;;7.00;7.00;;;;;23.37;32.44;100415.41;5075743;27;45297;-68
2022/08/13 04:38:56;;;;;;;;;7.00;7.00;;;;;23.36;32.99;100413.72;5076262;27;45931;-68
2022/08/13 04:41:21;;;;;;;;;5.75;5.75;;;;;23.36;32.66;100405.66;5075977;28;46409;-69
2022/08/13 04:43:47;;;;;;;;;7.00;7.00;;;;;23.36;32.95;100408.34;5074019;28;45447;-70
2022/08/13 04:46:12;;;;;;;;;6.50;6.50;;;;;23.34;32.51;100411.16;5075495;27;47747;-69
2022/08/13 04:48:37;;;;;;;;;7.00;7.00;;;;;23.33;32.81;100406.78;5075813;27;45322;-70
2022/08/13 04:51:05;;;;;;;;;5.75;5.75;;;;;23.34;32.80;100415.69;5075135;27;45412;-70
2022/08/13 04:53:40;;;;;;;;;7.50;7.50;;;;;23.31;33.38;100411.47;5075039;27;45365;-67
2022/08/13 04:56:06;;;;;;;;;5.00;5.00;;;;;23.32;32.75;100398.88;5073982;27;45282;-71
2022/08/13 04:58:35;;;;;;;;;7.50;7.50;;;;;23.32;32.92;100412.28;5075353;27;45450;-71
2022/08/13 05:01:06;;;;;;;;;11.25;11.25;;;;;23.31;33.07;100402.53;5074876;27;45387;-72
2022/08/13 05:03:32;;;;;;;;;6.75;6.75;;;;;23.29;33.01;100401.84;5074757;28;45326;-73
2022/08/13 05:05:57;;;;;;;;;8.50;8.50;;;;;23.31;33.21;100407.91;5075416;27;45434;-73
2022/08/13 05:08:23;;;;;;;;;6.00;6.00;;;;;23.30;33.10;100414.28;5075811;27;45448;-73
2022/08/13 05:10:50;;;;;;;;;8.50;8.50;;;;;23.27;33.10;100407.38;5075064;27;46125;-71
2022/08/13 05:13:23;;;;;;;;;8.50;8.50;;;;;23.31;33.77;100419.50;5074794;27;45505;-71
2022/08/13 05:15:48;;;;;;;;;7.50;7.50;;;;;23.27;33.88;100415.44;5075088;27;45302;-71
2022/08/13 05:18:18;;;;;;;;;8.25;8.25;;;;;23.29;33.50;100416.13;5073769;27;45462;-72
2022/08/13 05:20:43;;;;;;;;;8.00;8.00;;;;;23.29;33.90;100423.31;5074906;27;46791;-71
2022/08/13 05:23:10;;;;;;;;;7.25;7.25;;;;;23.28;34.06;100424.31;5074540;28;45263;-73
2022/08/13 05:25:36;;;;;;;;;8.50;8.50;;;;;23.25;34.53;100424.59;5073195;27;45285;-72
2022/08/13 05:28:02;;;;;;;;;9.00;9.00;;;;;23.17;34.22;100423.47;5074684;27;45228;-73
2022/08/13 05:30:28;;;;;;;;;8.25;8.25;;;;;23.14;34.97;100421.09;5074747;27;46577;-69
2022/08/13 05:32:57;;;;;;;;;10.25;9.75;;;;;23.08;34.83;100419.00;5074787;27;45306;-69
2022/08/13 05:35:23;;;;;;;;;12.25;12.25;;;;;23.08;34.43;100424.38;5073387;28;45278;-69
2022/08/13 05:37:49;;;;;;;;;9.50;9.50;;;;;23.07;34.61;100421.84;5073608;28;45690;-71
2022/08/13 05:40:15;;;;;;;;;7.00;7.00;;;;;23.06;34.38;100423.69;5074385;27;46482;-69
2022/08/13 05:42:40;;;;;;;;;9.50;9.50;;;;;23.06;34.56;100423.69;5072956;27;45510;-71
2022/08/13 05:45:10;;;;;;;;;7.00;7.00;;;;;23.06;34.10;100423.69;5074726;27;45283;-71
2022/08/13 05:47:36;;;;;;;;;8.25;8.25;;;;;23.07;34.55;100424.53;5074579;27;45350;-69
2022/08/13 05:50:08;;;;;;;;;9.00;9.00;;;;;23.10;34.79;100426.91;5074577;27;46387;-70
2022/08/13 05:52:35;;;;;;;;;8.75;8.75;;;;;23.10;34.59;100422.38;5074293;27;45349;-71
2022/08/13 05:55:05;;;;;;;;;8.25;8.25;;;;;23.11;34.26;100429.44;5074518;27;45359;-70
2022/08/13 05:57:30;;;;;;;;;7.75;7.75;;;;;23.14;34.20;100422.94;5074705;27;45284;-70
2022/08/13 06:05:24;;;;;;;;;7.00;6.75;;;;;23.18;34.13;100421.66;5074459;28;45299;-72
2022/08/13 06:07:49;;;;;;;;;7.50;7.50;;;;;23.24;34.08;100428.28;5077264;27;45161;-72
2022/08/13 06:10:15;;;;;;;;;6.00;6.00;;;;;23.28;34.13;100433.22;5077772;27;46482;-73
2022/08/13 06:12:43;;;;;;;;;8.00;8.00;;;;;23.34;34.52;100437.16;5077312;27;45243;-73
2022/08/13 06:15:11;;;;;;;;;6.75;6.75;;;;;23.40;34.07;100433.88;5077848;27;45389;-74
2022/08/13 06:17:38;;;;;;;;;5.00;5.00;;;;;23.44;34.17;100429.03;5077911;28;45493;-68
2022/08/13 06:20:04;;;;;;;;;9.00;9.00;;;;;23.50;34.26;100433.81;5077391;27;45634;-68
2022/08/13 06:22:33;;;;;;;;;7.00;7.00;;;;;23.54;33.88;100439.75;5077548;27;45334;-67
2022/08/13 06:25:00;;;;;;;;;6.00;6.00;;;;;23.57;33.63;100429.53;5077644;27;45388;-69
2022/08/13 06:27:25;;;;;;;;;10.00;10.00;;;;;23.63;33.91;100436.16;5077592;27;45595;-70
2022/08/13 06:29:51;;;;;;;;;7.75;7.75;;;;;23.69;34.02;100432.88;5077345;27;45387;-69
2022/08/13 06:32:21;;;;;;;;;7.00;7.00;;;;;23.75;34.09;100439.44;5077775;27;45384;-69
2022/08/13 06:34:46;;;;;;;;;3.50;3.50;;;;;23.83;33.88;100439.53;5077522;27;45213;-68
2022/08/13 06:37:11;;;;;;;;;7.00;7.00;;;;;23.88;33.39;100431.03;5077561;27;45526;-67
2022/08/13 06:39:38;;;;;;;;;6.75;6.75;;;;;23.93;33.73;100431.41;5077211;27;46276;-68
2022/08/13 06:42:04;;;;;;;;;8.75;8.75;;;;;24.02;33.17;100437.75;5077042;27;45460;-68
2022/08/13 06:44:32;;;;;;;;;6.00;6.00;;;;;24.09;33.27;100435.28;5077409;27;45276;-69
2022/08/13 06:47:02;;;;;;;;;15.25;15.25;;;;;24.16;33.53;100442.59;5077700;27;45380;-68
2022/08/13 06:49:27;;;;;;;;;9.50;9.50;;;;;24.23;33.23;100448.19;5077568;27;46564;-69
2022/08/13 06:51:53;;;;;;;;;6.00;6.00;;;;;24.29;33.02;100442.19;5077461;27;45780;-69
2022/08/13 06:54:18;;;;;;;;;9.25;9.25;;;;;24.33;32.57;100443.56;5077205;27;45381;-68
2022/08/13 06:56:44;;;;;;;;;9.25;9.25;;;;;24.38;33.16;100439.56;5075869;27;45488;-68
2022/08/13 06:59:13;;;;;;;;;10.00;10.00;;;;;24.44;33.04;100445.16;5075506;27;47807;-69
2022/08/13 07:01:41;;;;;;;;;9.75;9.75;;;;;24.48;33.25;100440.34;5076947;28;45343;-70
2022/08/13 07:04:15;;;;;;;;;5.50;5.50;;;;;24.54;32.73;100442.41;5077039;27;45277;-69
2022/08/13 07:06:44;;;;;;;;;6.75;6.75;;;;;24.61;32.98;100456.91;5077265;27;45294;-69
2022/08/13 07:09:09;;;;;;;;;9.75;9.75;;;;;24.64;32.83;100456.59;5076325;27;45386;-68
2022/08/13 07:11:35;;;;;;;;;10.75;10.75;;;;;24.68;32.87;100445.53;5075158;28;45494;-70
2022/08/13 07:14:02;;;;;;;;;10.75;8.75;;;;;24.74;32.38;100456.50;5077242;27;45345;-70
2022/08/13 07:16:30;;;;;;;;;7.00;7.00;;;;;24.79;32.67;100453.34;5077043;27;45600;-67
2022/08/13 07:18:59;;;;;;;;;6.50;6.50;;;;;24.84;32.52;100453.72;5075409;27;47419;-69
2022/08/13 07:21:25;;;;;;;;;7.00;7.00;;;;;24.89;32.33;100459.47;5076309;27;45275;-70
2022/08/13 07:23:53;;;;;;;;;5.00;5.00;;;;;24.94;32.29;100449.06;5076825;27;45341;-69
2022/08/13 07:26:21;;;;;;;;;5.50;5.50;;;;;25.03;32.20;100451.81;5075137;27;45482;-70
2022/08/13 07:28:51;;;;;;;;;5.00;5.00;;;;;25.06;32.04;100451.50;5076226;27;45728;-73
2022/08/13 07:31:27;;;;;;;;;8.75;8.75;;;;;25.17;32.65;100456.59;5076291;27;45516;-71
2022/08/13 07:33:54;;;;;;;;;7.00;7.00;;;;;25.26;32.16;100456.63;5076265;27;45348;-71
2022/08/13 07:36:20;;;;;;;;;6.00;6.00;;;;;25.35;32.17;100466.44;5076432;27;45554;-71
2022/08/13 07:38:47;;;;;;;;;6.25;6.25;;;;;25.43;32.03;100457.56;5076203;27;46487;-71
2022/08/13 07:41:14;;;;;;;;;7.25;7.25;;;;;25.52;32.37;100468.25;5076225;27;45420;-69
2022/08/13 07:43:44;;;;;;;;;5.75;5.75;;;;;25.60;31.49;100471.97;5075899;27;45300;-69
2022/08/13 07:46:14;;;;;;;;;5.00;5.00;;;;;25.67;31.92;100463.06;5074811;27;45308;-71
2022/08/13 07:48:41;;;;;;;;;4.50;4.50;;;;;25.75;31.79;100462.25;5075901;27;46273;-69
2022/08/13 07:51:19;;;;;;;;;5.50;5.50;;;;;25.84;31.96;100467.66;5076107;27;45488;-68
2022/08/13 07:53:55;;;;;;;;;9.00;9.00;;;;;25.93;31.40;100462.09;5074035;27;45425;-68
2022/08/13 07:56:30;;;;;;;;;8.50;8.50;;;;;26.03;31.75;100463.81;5076292;27;45234;-71
2022/08/13 07:59:02;;;;;;;;;6.00;6.00;;;;;26.13;31.32;100460.94;5076668;27;45489;-69
2022/08/13 08:01:28;;;;;;;;;6.75;6.75;;;;;26.20;31.10;100462.00;5076848;27;45332;-69
2022/08/13 08:03:59;;;;;;;;;5.50;5.50;;;;;26.27;31.18;100462.19;5075765;28;45388;-67
2022/08/13 08:06:25;;;;;;;;;6.00;6.00;;;;;26.35;31.04;100464.88;5074867;27;45365;-67
2022/08/13 08:08:54;;;;;;;;;6.50;6.50;;;;;26.44;30.78;100460.31;5076983;27;45421;-72
2022/08/13 08:14:05;;;;;;;;;6.75;6.75;;;;;26.60;30.77;100463.03;5076045;27;45307;-69
2022/08/13 08:16:32;;;;;;;;;6.75;6.75;;;;;26.68;30.70;100465.72;5074283;28;45625;-69
2022/08/13 08:18:59;;;;;;;;;6.25;6.25;;;;;26.74;30.85;100466.88;5075922;27;45691;-69
2022/08/13 08:21:25;;;;;;;;;5.00;5.00;;;;;26.84;30.43;100464.03;5075609;27;45354;-68
2022/08/13 08:23:57;;;;;;;;;6.00;5.00;;;;;26.94;30.88;100469.22;5075503;27;45270;-68
2022/08/13 08:26:25;;;;;;;;;6.25;6.25;;;;;27.01;30.45;100464.81;5075802;27;45456;-68
2022/08/13 08:28:52;;;;;;;;;7.00;7.00;;;;;27.15;30.34;100475.94;5075124;27;45401;-68
2022/08/13 08:31:17;;;;;;;;;6.25;6.25;;;;;27.26;30.35;100467.47;5074997;27;45433;-68
2022/08/13 08:33:44;;;;;;;;;7.00;7.00;;;;;27.32;29.75;100465.91;5076033;27;45585;-70
2022/08/13 08:36:10;;;;;;;;;7.25;7.25;;;;;27.43;29.55;100473.63;5075658;27;45285;-68
2022/08/13 08:44:20;;;;;;;;;7.75;7.75;;;;;27.82;29.61;100471.94;5074788;27;45619;-68
2022/08/13 08:46:47;;;;;;;;;4.75;4.75;;;;;27.94;28.99;100475.09;5074895;28;45368;-68
2022/08/13 08:49:13;;;;;;;;;5.50;5.50;;;;;28.03;28.81;100479.44;5074860;27;45320;-70
2022/08/13 08:51:40;;;;;;;;;6.00;6.00;;;;;28.11;28.89;100479.38;5075077;27;45394;-68
2022/08/13 08:54:06;;;;;;;;;5.00;5.00;;;;;28.23;28.60;100478.97;5073746;27;45397;-70
2022/08/13 08:56:34;;;;;;;;;4.50;4.50;;;;;28.33;28.20;100476.88;5075153;27;45601;-68
2022/08/13 08:59:00;;;;;;;;;5.25;5.25;;;;;28.45;28.62;100477.28;5074832;27;46085;-71
2022/08/13 09:01:25;;;;;;;;;4.75;4.75;;;;;28.55;28.26;100480.56;5075063;27;45279;-70
2022/08/13 09:03:56;;;;;;;;;5.75;5.75;;;;;28.66;27.97;100479.31;5074928;27;45333;-69
2022/08/13 09:06:23;;;;;;;;;5.25;5.25;;;;;28.79;28.14;100475.16;5074936;27;45346;-68
2022/08/13 09:08:52;;;;;;;;;5.75;5.75;;;;;28.85;27.34;100475.25;5072883;28;47753;-69
2022/08/13 09:11:19;;;;;;;;;5.00;5.00;;;;;28.92;27.40;100474.50;5074767;27;45238;-68
2022/08/13 09:13:49;;;;;;;;;6.75;6.75;;;;;28.97;26.82;100486.47;5074738;27;45306;-69
2022/08/13 09:16:17;;;;;;;;;5.50;5.25;;;;;29.05;26.91;100474.69;5074907;28;45433;-71
2022/08/13 09:18:43;;;;;;;;;6.00;6.00;;;;;29.12;26.82;100474.81;5074438;27;45318;-69
2022/08/13 09:21:09;;;;;;;;;7.25;6.25;;;;;29.18;26.73;100468.63;5075012;27;45216;-69
2022/08/13 09:23:34;;;;;;;;;10.50;10.25;;;;;29.29;26.92;100465.44;5074962;27;45416;-70
2022/08/13 09:26:04;;;;;;;;;4.00;4.00;;;;;29.39;26.19;100464.34;5074801;28;45237;-68
2022/08/13 09:28:31;;;;;;;;;7.00;7.00;;;;;29.52;26.69;100467.22;5074587;27;46218;-68
2022/08/13 09:30:57;;;;;;;;;6.00;6.00;;;;;29.64;26.39;100461.31;5074404;27;45527;-69
2022/08/13 09:33:31;;;;;;;;;4.00;4.00;;;;;29.74;25.91;100467.28;5074675;28;45256;-68
2022/08/13 09:35:57;;;;;;;;;5.00;5.00;;;;;29.85;26.19;100469.50;5075100;27;45265;-68
2022/08/13 09:38:26;;;;;;;;;4.00;4.00;;;;;29.96;25.71;100470.03;5074486;27;45468;-68
2022/08/13 09:40:55;;;;;;;;;4.25;4.25;;;;;30.05;25.97;100468.88;5072443;28;45932;-69
2022/08/13 09:43:30;;;;;;;;;6.75;6.75;;;;;30.16;25.17;100470.22;5074330;28;45402;-70
2022/08/13 09:45:56;;;;;;;;;6.50;6.50;;;;;30.27;25.55;100471.59;5074535;28;45379;-70
2022/08/13 09:48:23;;;;;;;;;6.75;6.75;;;;;30.31;24.78;100473.75;5074010;27;46379;-69
2022/08/13 09:50:49;;;;;;;;;15.75;15.75;;;;;30.38;24.79;100464.81;5072856;27;45355;-71
2022/08/13 09:53:14;;;;;;;;;9.75;9.75;;;;;30.43;25.32;100459.63;5074012;27;45318;-68
2022/08/13 09:55:40;;;;;;;;;5.75;5.75;;;;;30.44;24.80;100464.84;5074511;27;45580;-68
2022/08/13 09:58:08;;;;;;;;;5.00;5.00;;;;;30.49;24.24;100461.56;5073972;27;45566;-69
2022/08/13 10:00:33;;;;;;;;;4.50;4.50;;;;;30.56;24.06;100458.88;5074142;27;45409;-68
2022/08/13 10:03:04;;;;;;;;;3.50;3.50;;;;;30.65;24.26;100457.72;5073721;27;45321;-69
2022/08/13 10:05:34;;;;;;;;;5.50;5.50;;;;;30.72;23.63;100458.63;5074448;27;45467;-70
2022/08/13 10:08:05;;;;;;;;;7.50;7.50;;;;;30.80;24.08;100454.94;5074012;27;45414;-70
2022/08/13 10:10:31;;;;;;;;;4.00;4.00;;;;;30.89;23.86;100464.59;5074010;27;45238;-69
2022/08/13 10:12:58;;;;;;;;;9.75;9.75;;;;;30.98;23.89;100453.56;5073847;27;45425;-68
2022/08/13 10:15:24;;;;;;;;;4.75;4.75;;;;;31.02;23.34;100452.97;5074377;27;45377;-71
2022/08/13 10:17:55;;;;;;;;;14.50;14.50;;;;;31.10;23.28;100453.84;5072292;28;47182;-70
2022/08/13 10:20:32;;;;;;;;;14.25;14.00;;;;;31.17;23.07;100450.16;5072604;28;45715;-71
2022/08/13 10:22:59;;;;;;;;;7.00;7.00;;;;;31.21;23.66;100450.59;5072065;27;45393;-72
2022/08/13 10:25:26;;;;;;;;;9.00;9.00;;;;;31.23;23.84;100436.78;5073870;27;45461;-71
2022/08/13 10:27:52;;;;;;;;;7.75;6.75;;;;;31.29;23.42;100447.72;5073757;27;46113;-73
2022/08/13 10:30:24;;;;;;;;;10.00;10.00;;;;;31.38;23.71;100447.53;5073776;27;45341;-70
2022/08/13 10:32:49;;;;;;;;;7.00;7.00;;;;;31.41;22.95;100452.56;5074260;27;45400;-68
2022/08/13 10:35:17;;;;;;;;;7.25;7.25;;;;;31.41;23.42;100439.81;5073973;28;45555;-66
2022/08/13 10:37:56;;;;;;;;;5.00;5.00;;;;;31.47;23.36;100444.44;5073924;27;46507;-67
2022/08/13 10:40:25;;;;;;;;;3.25;3.25;;;;;31.52;22.88;100446.53;5073925;27;45197;-69
2022/08/13 10:42:52;;;;;;;;;4.00;4.00;;;;;31.54;22.72;100441.72;5073794;27;45309;-68
2022/08/13 10:45:19;;;;;;;;;5.25;5.25;;;;;31.54;22.42;100447.16;5074388;27;45502;-68
2022/08/13 10:47:52;;;;;;;;;6.50;6.50;;;;;31.49;22.47;100446.94;5074021;27;46683;-68
2022/08/13 10:50:20;;;;;;;;;14.25;13.75;;;;;31.47;22.65;100427.28;5073703;27;45385;-67
2022/08/13 10:52:46;;;;;;;;;7.00;7.00;;;;;31.49;22.64;100433.34;5073574;27;45230;-68
2022/08/13 10:55:13;;;;;;;;;4.50;4.50;;;;;31.51;22.56;100422.28;5076743;27;45165;-69
2022/08/13 10:57:40;;;;;;;;;3.00;3.00;;;;;31.51;22.26;100427.72;5076536;27;46106;-67
2022/08/13 11:00:07;;;;;;;;;6.25;6.25;;;;;31.55;23.00;100431.72;5076633;27;45413;-70
2022/08/13 11:02:33;;;;;;;;;7.25;7.25;;;;;31.63;23.07;100432.34;5076670;27;45357;-69
2022/08/13 11:05:03;;;;;;;;;8.50;8.50;;;;;31.75;22.20;100423.63;5076995;27;45256;-70
2022/08/13 11:07:30;;;;;;;;;4.75;4.75;;;;;31.83;22.37;100423.47;5076580;27;46196;-67
2022/08/13 11:09:56;;;;;;;;;4.50;4.50;;;;;31.88;22.18;100420.94;5076729;27;45379;-67
2022/08/13 11:12:22;;;;;;;;;5.50;5.50;;;;;31.93;22.31;100422.22;5076593;27;45437;-69
2022/08/13 11:14:48;;;;;;;;;4.50;4.50;;;;;32.02;22.16;100418.25;5076942;27;45405;-68
2022/08/13 11:17:17;;;;;;;;;5.25;5.25;;;;;32.09;21.84;100421.81;5076794;27;46385;-68
2022/08/13 11:19:45;;;;;;;;;4.00;4.00;;;;;32.06;22.21;100420.31;5076831;28;45300;-68
2022/08/13 11:22:11;;;;;;;;;5.25;5.25;;;;;32.19;22.18;100424.09;5076256;27;45359;-69
2022/08/13 11:24:37;;;;;;;;;6.50;6.50;;;;;32.28;21.93;100411.13;5076406;27;45441;-70
2022/08/13 11:27:02;;;;;;;;;5.50;5.50;;;;;32.31;21.55;100405.31;5074507;27;46493;-69
2022/08/13 11:29:27;;;;;;;;;4.25;4.25;;;;;32.40;21.24;100412.19;5076118;27;45282;-71
2022/08/13 11:31:53;;;;;;;;;4.00;4.00;;;;;32.40;21.23;100422.25;5076493;27;45268;-71
2022/08/13 11:34:18;;;;;;;;;4.00;4.00;;;;;32.43;21.45;100417.22;5076510;27;45429;-69
2022/08/13 11:36:43;;;;;;;;;6.25;6.25;;;;;32.45;20.80;100412.41;5076193;27;45521;-71
2022/08/13 11:39:11;;;;;;;;;4.50;4.50;;;;;32.45;20.83;100406.13;5074321;27;45338;-68
2022/08/13 11:41:36;;;;;;;;;4.50;4.50;;;;;32.48;20.66;100406.53;5076371;27;45370;-68
2022/08/13 11:44:02;;;;;;;;;4.25;4.25;;;;;32.51;20.42;100399.00;5075985;27;45307;-68
2022/08/13 11:46:27;;;;;;;;;5.75;5.75;;;;;32.55;20.43;100400.25;5074368;27;47506;-69
2022/08/13 11:48:53;;;;;;;;;4.50;4.50;;;;;32.56;21.06;100397.31;5076090;27;45234;-69